createdAt,value
2023-03-03T00:02:27.454Z,24.73
2023-03-03T00:04:59.514Z,23.98
2023-03-03T00:07:31.571Z,23.45
2023-03-03T00:10:04.883Z,23.95
2023-03-03T00:12:49.028Z,24.52
2023-03-03T00:15:25.412Z,23.35
2023-03-03T00:17:58.768Z,24.48
2023-03-03T00:20:40.568Z,23.50
2023-03-03T00:23:35.764Z,23.10
2023-03-03T00:26:45.418Z,23.58
2023-03-03T00:29:36.498Z,23.27
2023-03-03T00:32:43.759Z,21.45
2023-03-03T00:35:30.295Z,22.98
2023-03-03T00:38:18.551Z,22.30
2023-03-03T00:40:51.020Z,24.08
2023-03-03T00:43:34.432Z,23.02
2023-03-03T00:46:10.112Z,25.70
2023-03-03T00:48:49.592Z,25.30
2023-03-03T00:51:37.196Z,24.92
2023-03-03T00:54:09.344Z,24.70
2023-03-03T00:56:41.335Z,24.50
2023-03-03T00:59:13.412Z,25.23
2023-03-03T01:01:45.389Z,25.20
2023-03-03T01:04:17.412Z,24.08
2023-03-03T01:06:49.809Z,25.98
2023-03-03T01:09:22.092Z,25.63
2023-03-03T01:11:55.491Z,24.67
2023-03-03T01:14:27.767Z,23.70
2023-03-03T01:16:59.911Z,23.75
2023-03-03T01:19:32.834Z,24.13
2023-03-03T01:22:04.758Z,25.23
2023-03-03T01:24:36.908Z,25.67
2023-03-03T01:27:09.096Z,24.35
2023-03-03T01:29:41.084Z,24.10
2023-03-03T01:32:13.082Z,24.05
2023-03-03T01:34:45.239Z,23.70
2023-03-03T01:37:17.388Z,23.77
2023-03-03T01:39:51.376Z,24.85
2023-03-03T01:42:29.099Z,26.30
2023-03-03T01:45:24.226Z,25.08
2023-03-03T01:48:07.614Z,25.23
2023-03-03T01:51:07.852Z,23.98
2023-03-03T01:54:02.626Z,23.08
2023-03-03T01:56:38.845Z,25.60
2023-03-03T01:59:17.537Z,25.75
2023-03-03T02:01:53.958Z,22.25
2023-03-03T02:04:26.949Z,27.35
2023-03-03T02:07:07.502Z,22.70
2023-03-03T02:10:07.576Z,24.85
2023-03-03T02:12:57.085Z,22.30
2023-03-03T02:15:32.916Z,22.75
2023-03-03T02:18:13.106Z,23.83
2023-03-03T02:20:57.586Z,24.90
2023-03-03T02:23:47.365Z,23.67
2023-03-03T02:26:34.260Z,23.70
2023-03-03T02:29:10.021Z,24.30
2023-03-03T02:31:43.193Z,24.35
2023-03-03T02:34:15.304Z,23.55
2023-03-03T02:36:47.580Z,26.15
2023-03-03T02:39:22.550Z,23.98
2023-03-03T02:42:02.524Z,24.25
2023-03-03T02:44:40.487Z,22.80
2023-03-03T02:47:12.819Z,24.13
2023-03-03T02:49:45.316Z,26.27
2023-03-03T02:52:19.035Z,25.45
2023-03-03T02:54:50.974Z,25.80
2023-03-03T02:57:23.044Z,24.05
2023-03-03T02:59:55.182Z,24.63
2023-03-03T03:02:27.487Z,27.77
2023-03-03T03:04:59.441Z,27.05
2023-03-03T03:07:31.445Z,28.15
2023-03-03T03:10:03.775Z,25.73
2023-03-03T03:12:36.558Z,25.98
2023-03-03T03:15:10.047Z,25.95
2023-03-03T03:17:42.261Z,25.90
2023-03-03T03:20:15.034Z,27.88
2023-03-03T03:22:47.102Z,27.55
2023-03-03T03:25:19.141Z,27.30
2023-03-03T03:27:51.180Z,28.67
2023-03-03T03:30:23.212Z,27.42
2023-03-03T03:32:55.387Z,28.38
2023-03-03T03:35:27.396Z,30.73
2023-03-03T03:37:59.620Z,28.83
2023-03-03T03:40:31.711Z,28.42
2023-03-03T03:43:03.818Z,30.10
2023-03-03T03:45:35.955Z,25.73
2023-03-03T03:48:07.968Z,29.30
2023-03-03T03:50:40.155Z,29.67
2023-03-03T03:53:12.225Z,27.88
2023-03-03T03:55:46.047Z,27.15
2023-03-03T03:58:19.170Z,27.30
2023-03-03T04:00:51.308Z,27.45
2023-03-03T04:03:23.528Z,27.35
2023-03-03T04:05:55.692Z,28.52
2023-03-03T04:08:27.724Z,28.17
2023-03-03T04:11:01.888Z,27.63
2023-03-03T04:13:35.230Z,26.75
2023-03-03T04:16:07.537Z,27.40
2023-03-03T04:18:39.616Z,27.70
2023-03-03T04:21:14.708Z,27.27
2023-03-03T04:23:46.960Z,26.88
2023-03-03T04:26:19.241Z,28.48
2023-03-03T04:28:51.308Z,28.65
2023-03-03T04:31:23.637Z,29.75
2023-03-03T04:33:59.606Z,28.85
2023-03-03T04:36:31.588Z,28.83
2023-03-03T04:39:03.747Z,30.95
2023-03-03T04:41:35.955Z,29.05
2023-03-03T04:44:07.920Z,29.60
2023-03-03T04:46:39.988Z,29.95
2023-03-03T04:49:12.680Z,30.15
2023-03-03T04:51:44.815Z,29.42
2023-03-03T04:54:16.958Z,27.48
2023-03-03T04:57:12.951Z,29.05
2023-03-03T04:59:45.111Z,27.20
2023-03-03T05:02:17.563Z,30.90
2023-03-03T05:04:50.046Z,30.63
2023-03-03T05:07:22.110Z,30.00
2023-03-03T05:09:55.335Z,30.77
2023-03-03T05:12:27.330Z,29.75
2023-03-03T05:14:59.429Z,31.67
2023-03-03T05:17:32.202Z,29.77
2023-03-03T05:20:08.496Z,30.17
2023-03-03T05:22:42.836Z,28.60
2023-03-03T05:25:14.995Z,28.05
2023-03-03T05:27:47.485Z,30.52
2023-03-03T05:30:19.639Z,28.75
2023-03-03T05:32:51.791Z,29.58
2023-03-03T05:35:23.849Z,28.60
2023-03-03T05:37:58.145Z,27.05
2023-03-03T05:40:30.504Z,27.73
2023-03-03T05:43:02.705Z,27.42
2023-03-03T05:45:35.580Z,28.08
2023-03-03T05:48:07.913Z,29.00
2023-03-03T05:50:41.123Z,28.65
2023-03-03T05:53:13.228Z,27.73
2023-03-03T05:55:45.201Z,28.83
2023-03-03T05:58:17.227Z,26.90
2023-03-03T06:00:49.181Z,25.70
2023-03-03T06:03:21.364Z,27.00
2023-03-03T06:05:53.562Z,27.67
2023-03-03T06:08:25.755Z,28.90
2023-03-03T06:10:58.243Z,26.10
2023-03-03T06:13:30.400Z,27.35
2023-03-03T06:16:02.696Z,27.17
2023-03-03T06:18:34.997Z,28.63
2023-03-03T06:21:07.266Z,28.63
2023-03-03T06:23:39.299Z,26.30
2023-03-03T06:26:11.717Z,27.00
2023-03-03T06:28:43.696Z,28.80
2023-03-03T06:31:15.996Z,26.27
2023-03-03T06:33:47.984Z,26.50
2023-03-03T06:36:20.788Z,26.00
2023-03-03T06:38:52.835Z,25.10
2023-03-03T06:41:24.966Z,26.88
2023-03-03T06:43:58.346Z,25.92
2023-03-03T06:46:31.102Z,25.70
2023-03-03T06:49:03.306Z,26.20
2023-03-03T06:51:39.767Z,26.92
2023-03-03T06:54:17.711Z,26.00
2023-03-03T06:57:00.679Z,26.42
2023-03-03T06:59:44.902Z,27.33
2023-03-03T07:02:21.098Z,23.83
2023-03-03T07:04:55.978Z,24.80
2023-03-03T07:07:28.079Z,24.35
2023-03-03T07:10:00.701Z,22.95
2023-03-03T07:12:38.550Z,24.13
2023-03-03T07:15:20.534Z,23.35
2023-03-03T07:17:59.576Z,22.15
2023-03-03T07:20:36.753Z,22.80
2023-03-03T07:23:24.244Z,24.27
2023-03-03T07:26:11.701Z,21.33
2023-03-03T07:28:58.463Z,23.08
2023-03-03T07:31:40.897Z,23.13
2023-03-03T07:34:21.964Z,21.40
2023-03-03T07:37:35.707Z,22.98
2023-03-03T07:40:51.436Z,21.58
2023-03-03T07:43:45.572Z,21.20
2023-03-03T07:46:23.579Z,20.85
2023-03-03T07:49:36.046Z,21.75
2023-03-03T07:52:29.868Z,20.85
2023-03-03T07:55:42.011Z,19.90
2023-03-03T07:58:17.260Z,20.65
2023-03-03T08:01:19.601Z,21.17
2023-03-03T08:04:42.666Z,20.42
2023-03-03T08:07:34.380Z,20.63
2023-03-03T08:10:35.058Z,20.52
2023-03-03T08:13:22.799Z,20.33
2023-03-03T08:16:04.790Z,20.55
2023-03-03T08:19:02.154Z,20.23
2023-03-03T08:21:36.651Z,18.88
2023-03-03T08:24:08.837Z,20.42
2023-03-03T08:26:41.006Z,19.17
2023-03-03T08:29:13.614Z,20.23
2023-03-03T08:31:46.233Z,20.08
2023-03-03T08:34:19.463Z,20.15
2023-03-03T08:36:52.185Z,19.35
2023-03-03T08:39:25.123Z,19.15
2023-03-03T08:41:57.944Z,17.90
2023-03-03T08:44:30.354Z,18.02
2023-03-03T08:47:02.657Z,19.30
2023-03-03T08:49:35.122Z,17.60
2023-03-03T08:52:07.373Z,18.50
2023-03-03T08:54:39.643Z,17.80
2023-03-03T08:57:12.523Z,17.40
2023-03-03T08:59:45.514Z,17.77
2023-03-03T09:02:18.973Z,18.92
2023-03-03T09:04:51.783Z,18.17
2023-03-03T09:07:24.644Z,18.10
2023-03-03T09:09:57.066Z,18.65
2023-03-03T09:12:35.835Z,17.67
2023-03-03T09:15:28.783Z,18.02
2023-03-03T09:18:25.081Z,17.63
2023-03-03T09:21:29.904Z,18.92
2023-03-03T09:24:05.867Z,18.48
2023-03-03T09:26:55.819Z,18.65
2023-03-03T09:29:37.643Z,19.83
2023-03-03T09:32:34.420Z,19.08
2023-03-03T09:35:38.492Z,20.33
2023-03-03T09:38:19.615Z,18.98
2023-03-03T09:41:36.441Z,20.35
2023-03-03T09:45:01.280Z,21.38
2023-03-03T09:48:24.754Z,20.65
2023-03-03T09:51:41.899Z,20.77
2023-03-03T09:54:47.524Z,19.88
2023-03-03T09:58:10.904Z,22.52
2023-03-03T10:01:41.564Z,20.58
2023-03-03T10:04:42.624Z,21.15
2023-03-03T10:08:10.698Z,20.05
2023-03-03T10:11:44.363Z,22.85
2023-03-03T10:14:57.927Z,21.67
2023-03-03T10:18:14.946Z,22.90
2023-03-03T10:21:12.028Z,23.10
2023-03-03T10:24:21.043Z,21.27
2023-03-03T10:27:28.200Z,23.02
2023-03-03T10:30:48.563Z,22.42
2023-03-03T10:34:06.005Z,23.38
2023-03-03T10:37:06.940Z,23.20
2023-03-03T10:40:21.669Z,24.30
2023-03-03T10:43:32.027Z,22.85
2023-03-03T10:46:31.435Z,21.75
2023-03-03T10:49:32.608Z,22.08
2023-03-03T10:52:49.327Z,22.00
2023-03-03T10:56:15.978Z,22.63
2023-03-03T10:59:36.876Z,22.02
2023-03-03T11:03:14.364Z,21.75
2023-03-03T11:06:22.205Z,21.55
2023-03-03T11:09:49.244Z,22.75
2023-03-03T11:12:50.308Z,21.65
2023-03-03T11:15:50.068Z,21.95
2023-03-03T11:18:36.445Z,21.42
2023-03-03T11:21:51.037Z,21.27
2023-03-03T11:24:38.220Z,21.88
2023-03-03T11:27:53.066Z,21.15
2023-03-03T11:30:59.949Z,21.52
2023-03-03T11:34:06.675Z,19.60
2023-03-03T11:37:16.794Z,20.83
2023-03-03T11:40:22.228Z,20.42
2023-03-03T11:43:11.827Z,21.33
2023-03-03T11:46:13.088Z,18.88
2023-03-03T11:49:19.946Z,18.20
2023-03-03T11:52:22.507Z,19.42
2023-03-03T11:55:39.445Z,18.95
2023-03-03T11:58:43.894Z,20.50
2023-03-03T12:02:18.485Z,19.20
2023-03-03T12:05:15.614Z,17.25
2023-03-03T12:08:19.393Z,18.55
2023-03-03T12:11:28.604Z,19.30
2023-03-03T12:14:46.624Z,19.13
2023-03-03T12:17:56.915Z,20.50
2023-03-03T12:20:59.392Z,19.10
2023-03-03T12:24:16.608Z,18.25
2023-03-03T12:27:30.036Z,18.67
2023-03-03T12:30:34.835Z,20.38
2023-03-03T12:33:44.416Z,20.65
2023-03-03T12:37:06.532Z,20.70
2023-03-03T12:40:10.503Z,19.70
2023-03-03T12:43:43.109Z,21.88
2023-03-03T12:46:57.993Z,19.95
2023-03-03T12:50:06.528Z,19.88
2023-03-03T12:53:18.424Z,20.10
2023-03-03T12:56:14.155Z,22.08
2023-03-03T12:59:18.254Z,20.60
2023-03-03T13:02:18.834Z,20.45
2023-03-03T13:05:13.872Z,19.25
2023-03-03T13:08:48.353Z,20.77
2023-03-03T13:11:51.582Z,21.15
2023-03-03T13:14:45.293Z,20.65
2023-03-03T13:17:37.532Z,19.88
2023-03-03T13:20:36.140Z,20.10
2023-03-03T13:23:32.401Z,20.25
2023-03-03T13:27:17.117Z,19.90
2023-03-03T13:30:01.764Z,20.20
2023-03-03T13:32:52.544Z,20.08
2023-03-03T13:35:46.167Z,20.20
2023-03-03T13:38:44.071Z,19.33
2023-03-03T13:41:32.281Z,19.63
2023-03-03T13:44:32.552Z,20.80
2023-03-03T13:47:28.620Z,20.08
2023-03-03T13:50:25.657Z,20.52
2023-03-03T13:53:32.775Z,22.58
2023-03-03T13:56:49.032Z,20.67
2023-03-03T14:00:05.925Z,21.17
2023-03-03T14:02:57.955Z,21.38
2023-03-03T14:05:53.296Z,21.90
2023-03-03T14:09:32.929Z,20.80
2023-03-03T14:12:34.777Z,20.48
2023-03-03T14:15:52.741Z,21.67
2023-03-03T14:18:42.029Z,22.60
2023-03-03T14:21:48.054Z,21.75
2023-03-03T14:25:05.570Z,22.00
2023-03-03T14:27:47.942Z,23.45
2023-03-03T14:30:38.767Z,22.15
2023-03-03T14:33:14.127Z,20.63
2023-03-03T14:35:56.571Z,21.73
2023-03-03T14:38:34.770Z,22.08
2023-03-03T14:41:10.291Z,21.13
2023-03-03T14:44:00.741Z,21.92
2023-03-03T14:47:23.873Z,20.50
2023-03-03T14:50:03.685Z,21.77
2023-03-03T14:53:24.222Z,22.80
2023-03-03T14:56:29.319Z,22.35
2023-03-03T14:59:27.097Z,22.50
2023-03-03T15:02:23.179Z,23.60
2023-03-03T15:05:24.051Z,22.52
2023-03-03T15:08:11.280Z,21.83
2023-03-03T15:10:46.318Z,22.67
2023-03-03T15:13:21.934Z,22.33
2023-03-03T15:16:11.338Z,20.85
2023-03-03T15:19:07.241Z,22.52
2023-03-03T15:22:07.721Z,22.45
2023-03-03T15:25:09.256Z,22.30
2023-03-03T15:28:29.210Z,21.83
2023-03-03T15:32:04.409Z,20.27
2023-03-03T15:35:00.377Z,20.38
2023-03-03T15:38:37.692Z,22.40
2023-03-03T15:41:35.327Z,21.00
2023-03-03T15:44:52.685Z,22.85
2023-03-03T15:48:07.036Z,20.60
2023-03-03T15:51:20.550Z,22.42
2023-03-03T15:54:31.454Z,21.52
2023-03-03T15:57:41.528Z,20.25
2023-03-03T16:01:01.164Z,20.90
2023-03-03T16:04:01.122Z,21.60
2023-03-03T16:07:06.029Z,21.23
2023-03-03T16:10:01.037Z,21.50
2023-03-03T16:13:17.917Z,20.80
2023-03-03T16:16:21.462Z,21.17
2023-03-03T16:19:32.300Z,21.80
2023-03-03T16:22:36.054Z,21.13
2023-03-03T16:25:40.489Z,20.20
2023-03-03T16:28:51.697Z,20.00
2023-03-03T16:31:50.034Z,21.25
2023-03-03T16:34:56.697Z,22.67
2023-03-03T16:38:02.922Z,19.35
2023-03-03T16:40:55.285Z,21.83
2023-03-03T16:43:53.752Z,20.55
2023-03-03T16:46:49.512Z,20.70
2023-03-03T16:49:39.400Z,21.92
2023-03-03T16:52:45.011Z,22.15
2023-03-03T16:56:23.699Z,21.50
2023-03-03T16:59:04.687Z,21.35
2023-03-03T17:02:27.207Z,20.42
2023-03-03T17:05:44.587Z,21.50
2023-03-03T17:08:44.003Z,20.65
2023-03-03T17:12:00.608Z,19.60
2023-03-03T17:14:56.845Z,20.50
2023-03-03T17:18:05.193Z,21.35
2023-03-03T17:21:00.940Z,21.33
2023-03-03T17:24:06.363Z,20.00
2023-03-03T17:27:08.362Z,21.30
2023-03-03T17:29:57.079Z,21.50
2023-03-03T17:32:52.676Z,22.15
2023-03-03T17:36:22.910Z,20.63
2023-03-03T17:39:50.390Z,20.73
2023-03-03T17:43:02.478Z,22.02
2023-03-03T17:45:47.818Z,20.10
2023-03-03T17:48:39.464Z,22.55
2023-03-03T17:51:58.393Z,20.60
2023-03-03T17:54:59.494Z,21.02
2023-03-03T17:58:26.236Z,21.40
2023-03-03T18:01:33.265Z,20.58
2023-03-03T18:04:47.894Z,21.73
2023-03-03T18:07:52.064Z,20.55
2023-03-03T18:11:06.077Z,20.88
2023-03-03T18:14:07.471Z,20.48
2023-03-03T18:17:24.135Z,21.33
2023-03-03T18:20:30.297Z,21.92
2023-03-03T18:23:32.083Z,19.95
2023-03-03T18:26:44.008Z,22.25
2023-03-03T18:29:24.404Z,21.50
2023-03-03T18:32:00.312Z,22.45
2023-03-03T18:34:39.050Z,22.45
2023-03-03T18:37:37.332Z,22.55
2023-03-03T18:40:18.016Z,23.42
2023-03-03T18:43:00.329Z,24.38
2023-03-03T18:45:53.741Z,23.90
2023-03-03T18:49:13.137Z,22.77
2023-03-03T18:51:50.384Z,22.88
2023-03-03T18:54:43.456Z,23.65
2023-03-03T18:57:39.510Z,24.92
2023-03-03T19:00:32.084Z,22.45
2023-03-03T19:03:32.738Z,22.65
2023-03-03T19:06:37.573Z,24.25
2023-03-03T19:09:51.764Z,24.17
2023-03-03T19:12:52.823Z,24.45
2023-03-03T19:15:30.592Z,23.25
2023-03-03T19:18:25.807Z,24.70
2023-03-03T19:21:05.330Z,24.13
2023-03-03T19:24:06.566Z,25.55
2023-03-03T19:27:14.253Z,22.65
2023-03-03T19:30:23.423Z,24.50
2023-03-03T19:33:40.943Z,23.48
2023-03-03T19:36:42.453Z,25.75
2023-03-03T19:40:21.453Z,25.23
2023-03-03T19:43:37.718Z,25.13
2023-03-03T19:46:58.176Z,24.40
2023-03-03T19:49:50.132Z,24.83
2023-03-03T19:52:47.720Z,25.20
2023-03-03T19:55:55.537Z,25.15
2023-03-03T19:59:00.048Z,26.63
2023-03-03T20:02:39.897Z,25.92
2023-03-03T20:06:05.037Z,27.15
2023-03-03T20:08:54.633Z,25.55
2023-03-03T20:12:02.200Z,32.65
2023-03-03T20:15:23.601Z,39.85
2023-03-03T20:18:45.314Z,32.25
2023-03-03T20:21:58.916Z,27.48
2023-03-03T20:25:04.314Z,23.92
2023-03-03T20:28:03.363Z,23.90
2023-03-03T20:31:23.995Z,21.38
2023-03-03T20:34:16.880Z,23.13
2023-03-03T20:37:15.663Z,24.08
2023-03-03T20:40:31.639Z,21.25
2023-03-03T20:43:57.381Z,22.40
2023-03-03T20:47:12.378Z,22.00
2023-03-03T20:50:24.876Z,22.85
2023-03-03T20:53:38.852Z,24.15
2023-03-03T20:56:46.133Z,20.73
2023-03-03T20:59:45.529Z,22.50
2023-03-03T21:02:56.070Z,21.77
2023-03-03T21:06:19.664Z,21.58
2023-03-03T21:08:57.814Z,22.55
2023-03-03T21:11:31.003Z,22.38
2023-03-03T21:14:36.459Z,22.52
2023-03-03T21:17:28.143Z,20.70
2023-03-03T21:20:33.278Z,22.83
2023-03-03T21:23:06.823Z,22.42
2023-03-03T21:25:43.854Z,22.00
2023-03-03T21:28:30.774Z,21.42
2023-03-03T21:31:17.319Z,22.25
2023-03-03T21:33:54.566Z,20.98
2023-03-03T21:36:37.079Z,24.25
2023-03-03T21:39:31.924Z,22.02
2023-03-03T21:42:19.595Z,21.20
2023-03-03T21:45:13.928Z,21.02
2023-03-03T21:47:48.379Z,21.60
2023-03-03T21:50:21.585Z,21.70
2023-03-03T21:52:56.305Z,23.05
2023-03-03T21:55:28.507Z,21.13
2023-03-03T21:58:00.615Z,22.13
2023-03-03T22:00:33.050Z,22.73
2023-03-03T22:03:05.227Z,21.00
2023-03-03T22:05:38.042Z,20.45
2023-03-03T22:08:10.465Z,21.52
2023-03-03T22:10:42.804Z,19.38
2023-03-03T22:13:17.053Z,20.55
2023-03-03T22:15:51.753Z,20.58
2023-03-03T22:18:24.938Z,20.05
2023-03-03T22:20:57.385Z,21.38
2023-03-03T22:23:29.552Z,21.23
2023-03-03T22:26:02.334Z,21.98
2023-03-03T22:28:34.996Z,19.75
2023-03-03T22:31:07.951Z,22.65
2023-03-03T22:33:49.122Z,20.58
2023-03-03T22:36:23.149Z,19.80
2023-03-03T22:38:55.500Z,21.20
2023-03-03T22:41:27.717Z,20.75
2023-03-03T22:43:59.984Z,19.48
2023-03-03T22:46:32.228Z,19.80
2023-03-03T22:49:04.329Z,20.95
2023-03-03T22:51:36.372Z,21.25
2023-03-03T22:54:08.522Z,21.10
2023-03-03T22:56:40.740Z,21.48
2023-03-03T22:59:12.902Z,20.85
2023-03-03T23:01:44.896Z,21.88
2023-03-03T23:04:17.124Z,20.10
2023-03-03T23:06:50.128Z,21.70
2023-03-03T23:09:22.543Z,20.98
2023-03-03T23:11:54.763Z,21.63
2023-03-03T23:14:27.115Z,21.02
2023-03-03T23:16:59.265Z,23.48
2023-03-03T23:20:11.926Z,22.27
2023-03-03T23:22:48.826Z,23.08
2023-03-03T23:25:23.164Z,21.35
2023-03-03T23:27:56.850Z,21.35
2023-03-03T23:30:29.028Z,20.60
2023-03-03T23:33:01.077Z,21.92
2023-03-03T23:35:33.231Z,22.80
2023-03-03T23:38:05.490Z,22.38
2023-03-03T23:40:38.138Z,19.27
2023-03-03T23:43:10.966Z,21.08
2023-03-03T23:45:44.395Z,20.45
2023-03-03T23:48:17.057Z,20.00
2023-03-03T23:50:50.240Z,20.55
2023-03-03T23:53:24.934Z,20.98
2023-03-03T23:55:57.207Z,21.50
2023-03-03T23:58:30.120Z,21.50
